createdAt,value
2019-06-26T00:02:30.801Z,4.70
2019-06-26T00:05:06.122Z,4.83
2019-06-26T00:07:39.522Z,8.23
2019-06-26T00:10:13.402Z,10.35
2019-06-26T00:12:46.807Z,9.25
2019-06-26T00:15:20.281Z,9.35
2019-06-26T00:17:53.676Z,8.80
2019-06-26T00:20:27.060Z,8.58
2019-06-26T00:23:00.706Z,9.38
2019-06-26T00:25:34.109Z,10.48
2019-06-26T00:28:07.501Z,11.08
2019-06-26T00:30:41.467Z,9.85
2019-06-26T00:33:14.869Z,8.58
2019-06-26T00:35:48.270Z,9.70
2019-06-26T00:38:21.667Z,8.00
2019-06-26T00:40:55.067Z,8.60
2019-06-26T00:43:41.576Z,9.98
2019-06-26T00:46:03.912Z,10.85
2019-06-26T00:48:37.556Z,8.93
2019-06-26T00:51:10.938Z,8.83
2019-06-26T00:53:44.341Z,10.05
2019-06-26T00:56:17.739Z,9.45
2019-06-26T00:58:51.135Z,10.25
2019-06-26T01:01:24.532Z,10.15
2019-06-26T01:03:59.581Z,10.88
2019-06-26T01:06:44.804Z,11.38
2019-06-26T01:09:18.449Z,9.83
2019-06-26T01:11:51.840Z,9.20
2019-06-26T01:14:25.249Z,10.05
2019-06-26T01:16:58.660Z,11.10
2019-06-26T01:19:32.052Z,10.32
2019-06-26T01:22:05.441Z,10.50
2019-06-26T01:24:38.856Z,10.45
2019-06-26T01:27:12.258Z,10.38
2019-06-26T01:29:45.665Z,9.05
2019-06-26T01:32:19.074Z,8.03
2019-06-26T01:34:52.478Z,7.40
2019-06-26T01:37:25.854Z,6.53
2019-06-26T01:39:59.258Z,6.65
2019-06-26T01:42:32.666Z,7.30
2019-06-26T01:45:07.299Z,8.03
2019-06-26T01:47:40.687Z,8.05
2019-06-26T01:50:14.321Z,7.10
2019-06-26T01:52:47.715Z,6.90
2019-06-26T01:55:21.115Z,5.60
2019-06-26T01:57:54.505Z,6.00
2019-06-26T02:00:28.383Z,4.45
2019-06-26T02:03:01.909Z,5.42
2019-06-26T02:05:35.436Z,5.70
2019-06-26T02:08:08.828Z,7.30
2019-06-26T02:10:42.420Z,7.15
2019-06-26T02:13:15.777Z,7.58
2019-06-26T02:15:49.218Z,7.28
2019-06-26T02:18:33.000Z,8.68
2019-06-26T02:21:06.465Z,8.60
2019-06-26T02:23:39.861Z,9.18
2019-06-26T02:26:13.325Z,9.80
2019-06-26T02:28:46.662Z,9.00
2019-06-26T02:31:20.069Z,10.15
2019-06-26T02:33:53.456Z,10.08
2019-06-26T02:36:26.862Z,10.60
2019-06-26T02:39:00.253Z,9.53
2019-06-26T02:41:33.664Z,10.03
2019-06-26T02:44:07.063Z,9.53
2019-06-26T02:46:40.479Z,10.10
2019-06-26T02:49:13.885Z,11.18
2019-06-26T02:51:47.288Z,9.68
2019-06-26T02:54:20.932Z,10.00
2019-06-26T02:56:54.335Z,9.88
2019-06-26T02:59:27.720Z,9.43
2019-06-26T03:02:01.121Z,8.58
2019-06-26T03:04:34.507Z,9.23
2019-06-26T03:07:07.917Z,6.00
2019-06-26T03:09:41.308Z,6.33
2019-06-26T03:12:14.700Z,6.70
2019-06-26T03:14:48.097Z,6.53
2019-06-26T03:17:21.601Z,8.88
2019-06-26T03:19:55.252Z,8.88
2019-06-26T03:22:28.646Z,8.80
2019-06-26T03:25:02.348Z,10.58
2019-06-26T03:27:35.739Z,10.53
2019-06-26T03:30:09.506Z,10.70
2019-06-26T03:32:42.905Z,9.18
2019-06-26T03:35:16.305Z,10.72
2019-06-26T03:37:49.699Z,8.23
2019-06-26T03:40:23.098Z,7.67
2019-06-26T03:42:56.487Z,9.40
2019-06-26T03:45:30.148Z,10.05
2019-06-26T03:48:03.540Z,8.98
2019-06-26T03:50:37.187Z,9.25
2019-06-26T03:53:10.817Z,10.72
2019-06-26T03:55:44.229Z,11.10
2019-06-26T03:58:17.685Z,10.98
2019-06-26T04:00:51.083Z,9.58
2019-06-26T04:03:24.578Z,8.85
2019-06-26T04:05:57.987Z,9.88
2019-06-26T04:08:31.375Z,10.65
2019-06-26T04:11:04.771Z,9.53
2019-06-26T04:13:38.163Z,9.45
2019-06-26T04:16:11.566Z,10.35
2019-06-26T04:18:44.956Z,11.22
2019-06-26T04:21:18.358Z,10.50
2019-06-26T04:23:51.749Z,10.48
2019-06-26T04:26:25.161Z,12.23
2019-06-26T04:28:58.552Z,10.45
2019-06-26T04:31:31.958Z,11.78
2019-06-26T04:34:05.348Z,12.45
2019-06-26T04:36:38.778Z,9.85
2019-06-26T04:39:12.178Z,12.20
2019-06-26T04:41:45.663Z,11.90
2019-06-26T04:44:19.051Z,11.78
2019-06-26T04:46:52.459Z,11.15
2019-06-26T04:49:25.843Z,11.22
2019-06-26T04:51:59.496Z,10.75
2019-06-26T04:54:32.981Z,10.95
2019-06-26T04:57:06.686Z,9.83
2019-06-26T04:59:40.091Z,12.23
2019-06-26T05:02:14.422Z,11.22
2019-06-26T05:04:47.823Z,11.83
2019-06-26T05:07:21.229Z,11.85
2019-06-26T05:09:54.625Z,16.12
2019-06-26T05:12:28.029Z,13.78
2019-06-26T05:15:02.577Z,14.98
2019-06-26T05:17:35.984Z,15.68
2019-06-26T05:20:10.167Z,15.25
2019-06-26T05:22:43.577Z,14.93
2019-06-26T05:25:17.034Z,17.87
2019-06-26T05:27:50.449Z,17.55
2019-06-26T05:30:24.412Z,22.67
2019-06-26T05:32:58.065Z,23.40
2019-06-26T05:35:34.872Z,22.30
2019-06-26T05:38:06.619Z,22.42
2019-06-26T05:40:40.014Z,21.23
2019-06-26T05:43:13.660Z,22.82
2019-06-26T05:45:47.066Z,22.32
2019-06-26T05:48:21.394Z,21.70
2019-06-26T05:50:54.803Z,20.52
2019-06-26T05:53:28.234Z,22.60
2019-06-26T05:56:01.629Z,19.50
2019-06-26T05:58:35.031Z,19.87
2019-06-26T06:01:08.434Z,20.25
2019-06-26T06:03:41.850Z,19.10
2019-06-26T06:06:15.567Z,19.62
2019-06-26T06:08:49.917Z,18.60
2019-06-26T06:11:23.338Z,17.73
2019-06-26T06:13:56.727Z,17.17
2019-06-26T06:16:45.930Z,17.15
2019-06-26T06:19:05.260Z,17.90
2019-06-26T06:21:39.568Z,17.42
2019-06-26T06:24:12.985Z,17.35
2019-06-26T06:26:46.368Z,17.32
2019-06-26T06:29:19.782Z,16.20
2019-06-26T06:31:53.180Z,16.45
2019-06-26T06:34:26.657Z,16.75
2019-06-26T06:37:00.325Z,15.95
2019-06-26T06:39:33.995Z,16.40
2019-06-26T06:42:08.295Z,16.45
2019-06-26T06:44:41.698Z,15.65
2019-06-26T06:47:15.336Z,15.63
2019-06-26T06:49:48.757Z,14.90
2019-06-26T06:52:22.154Z,15.03
2019-06-26T06:54:55.575Z,15.80
2019-06-26T06:57:29.219Z,13.65
2019-06-26T07:00:02.710Z,14.43
2019-06-26T07:02:36.133Z,14.43
2019-06-26T07:05:10.489Z,14.18
2019-06-26T07:07:45.815Z,14.43
2019-06-26T07:10:20.257Z,15.03
2019-06-26T07:12:53.751Z,15.23
2019-06-26T07:15:32.972Z,14.80
2019-06-26T07:18:06.620Z,14.93
2019-06-26T07:20:44.664Z,13.88
2019-06-26T07:23:17.301Z,14.20
2019-06-26T07:25:50.720Z,14.20
2019-06-26T07:28:24.132Z,13.08
2019-06-26T07:30:57.564Z,13.13
2019-06-26T07:33:33.181Z,13.05
2019-06-26T07:36:08.602Z,12.68
2019-06-26T07:38:42.045Z,13.88
2019-06-26T07:41:17.476Z,12.43
2019-06-26T07:43:52.040Z,11.68
2019-06-26T07:46:25.535Z,11.57
2019-06-26T07:48:59.218Z,11.90
2019-06-26T07:51:33.097Z,10.58
2019-06-26T07:54:07.499Z,11.90
2019-06-26T07:56:43.152Z,11.30
2019-06-26T07:59:17.271Z,10.72
2019-06-26T08:01:51.810Z,11.05
2019-06-26T08:04:25.240Z,10.50
2019-06-26T08:06:58.901Z,10.48
2019-06-26T08:09:32.325Z,10.60
2019-06-26T08:12:06.671Z,10.20
2019-06-26T08:14:40.117Z,9.73
2019-06-26T08:17:13.589Z,10.40
2019-06-26T08:19:47.052Z,9.55
2019-06-26T08:22:20.799Z,8.63
2019-06-26T08:24:54.304Z,8.98
2019-06-26T08:27:28.646Z,9.25
2019-06-26T08:30:02.194Z,8.63
2019-06-26T08:32:44.440Z,8.85
2019-06-26T08:35:18.097Z,7.50
2019-06-26T08:38:05.710Z,8.13
2019-06-26T08:40:31.732Z,7.25
2019-06-26T08:43:06.286Z,8.05
2019-06-26T08:45:41.632Z,8.30
2019-06-26T08:48:38.344Z,8.53
2019-06-26T08:50:58.260Z,8.25
2019-06-26T08:53:33.072Z,7.22
2019-06-26T08:56:08.537Z,7.10
2019-06-26T08:58:42.013Z,7.62
2019-06-26T09:01:17.707Z,7.78
2019-06-26T09:03:57.073Z,7.47
2019-06-26T09:06:31.551Z,7.65
2019-06-26T09:09:07.950Z,7.35
2019-06-26T09:11:42.333Z,6.92
2019-06-26T09:14:18.534Z,7.20
2019-06-26T09:16:52.120Z,7.67
2019-06-26T09:19:25.943Z,8.93
2019-06-26T09:22:01.305Z,8.25
2019-06-26T09:24:38.606Z,8.10
2019-06-26T09:27:14.801Z,7.22
2019-06-26T09:29:55.311Z,8.30
2019-06-26T09:32:28.794Z,9.28
2019-06-26T09:35:11.689Z,9.23
2019-06-26T09:37:51.144Z,9.55
2019-06-26T09:40:24.665Z,9.75
2019-06-26T09:42:59.031Z,9.28
2019-06-26T09:45:41.410Z,10.00
2019-06-26T09:48:14.891Z,8.83
2019-06-26T09:51:01.280Z,9.25
2019-06-26T09:53:46.566Z,10.30
2019-06-26T09:56:16.429Z,10.08
2019-06-26T09:58:49.924Z,10.35
2019-06-26T10:01:23.780Z,9.65
2019-06-26T10:03:57.591Z,10.00
2019-06-26T10:06:31.182Z,9.60
2019-06-26T10:09:07.335Z,9.40
2019-06-26T10:11:40.791Z,8.53
2019-06-26T10:14:14.349Z,8.10
2019-06-26T10:16:51.822Z,8.43
2019-06-26T10:19:35.317Z,8.10
2019-06-26T10:22:08.812Z,7.65
2019-06-26T10:24:43.387Z,7.72
2019-06-26T10:27:16.890Z,7.15
2019-06-26T10:29:52.646Z,7.28
2019-06-26T10:32:26.150Z,8.35
2019-06-26T10:34:59.610Z,7.78
2019-06-26T10:37:33.162Z,6.70
2019-06-26T10:40:08.885Z,6.80
2019-06-26T10:42:49.270Z,7.47
2019-06-26T10:45:25.969Z,7.47
2019-06-26T10:48:06.344Z,7.70
2019-06-26T10:50:49.799Z,7.08
2019-06-26T10:53:18.141Z,7.50
2019-06-26T10:55:51.659Z,6.72
2019-06-26T10:58:27.409Z,6.72
2019-06-26T11:01:01.456Z,6.92
2019-06-26T11:03:36.359Z,7.40
2019-06-26T11:06:10.843Z,7.05
2019-06-26T11:08:44.450Z,7.20
2019-06-26T11:11:18.103Z,7.05
2019-06-26T11:13:51.657Z,7.10
2019-06-26T11:16:25.138Z,6.80
2019-06-26T11:19:00.807Z,7.35
2019-06-26T11:21:35.453Z,6.50
2019-06-26T11:24:12.969Z,6.25
2019-06-26T11:26:46.830Z,11.20
2019-06-26T11:29:21.614Z,6.92
2019-06-26T11:31:58.068Z,7.05
2019-06-26T11:34:33.831Z,6.90
2019-06-26T11:37:07.859Z,6.87
2019-06-26T11:39:41.440Z,6.45
2019-06-26T11:42:16.054Z,6.40
2019-06-26T11:45:00.085Z,6.72
2019-06-26T11:47:33.781Z,6.67
2019-06-26T11:50:12.415Z,6.60
2019-06-26T11:52:47.877Z,6.70
2019-06-26T11:55:27.829Z,6.67
2019-06-26T11:58:02.540Z,7.20
2019-06-26T12:00:41.594Z,6.87
2019-06-26T12:03:22.637Z,6.85
2019-06-26T12:06:15.255Z,7.03
2019-06-26T12:08:40.854Z,7.10
2019-06-26T12:11:17.453Z,7.22
2019-06-26T12:13:51.148Z,6.53
2019-06-26T12:16:25.709Z,7.00
2019-06-26T12:18:59.289Z,6.80
2019-06-26T12:21:41.666Z,6.20
2019-06-26T12:24:15.129Z,7.05
2019-06-26T12:26:52.692Z,6.47
2019-06-26T12:29:26.153Z,6.95
2019-06-26T12:31:59.682Z,6.35
2019-06-26T12:34:33.421Z,6.08
2019-06-26T12:37:07.014Z,6.35
2019-06-26T12:39:40.500Z,6.42
2019-06-26T12:42:15.420Z,6.72
2019-06-26T12:44:56.187Z,6.55
2019-06-26T12:50:06.952Z,6.10
2019-06-26T12:52:42.406Z,6.40
2019-06-26T12:55:16.125Z,6.08
2019-06-26T12:57:49.579Z,5.85
2019-06-26T13:00:23.466Z,5.70
2019-06-26T13:02:56.926Z,5.97
2019-06-26T13:05:30.380Z,5.58
2019-06-26T13:08:04.121Z,5.60
2019-06-26T13:10:48.907Z,5.83
2019-06-26T13:13:15.091Z,5.72
2019-06-26T13:15:51.055Z,6.03
2019-06-26T13:18:24.702Z,6.20
2019-06-26T13:21:05.725Z,5.40
2019-06-26T13:23:41.451Z,5.58
2019-06-26T13:26:26.553Z,6.30
2019-06-26T13:28:59.966Z,5.10
2019-06-26T13:31:33.459Z,5.25
2019-06-26T13:34:08.868Z,5.20
2019-06-26T13:36:43.711Z,5.10
2019-06-26T13:39:17.236Z,4.83
2019-06-26T13:41:50.747Z,4.67
2019-06-26T13:44:24.412Z,4.50
2019-06-26T13:47:01.454Z,4.60
2019-06-26T13:49:35.050Z,4.58
2019-06-26T13:52:08.809Z,4.80
2019-06-26T13:54:42.547Z,4.40
2019-06-26T13:57:16.290Z,4.58
2019-06-26T13:59:49.680Z,5.05
2019-06-26T14:02:23.087Z,4.47
2019-06-26T14:04:56.730Z,5.00
2019-06-26T14:07:30.134Z,5.55
2019-06-26T14:10:05.306Z,4.65
2019-06-26T14:12:39.187Z,5.05
2019-06-26T14:15:14.216Z,4.95
2019-06-26T14:17:47.689Z,5.08
2019-06-26T14:20:22.120Z,4.65
2019-06-26T14:22:55.524Z,5.22
2019-06-26T14:25:28.908Z,5.35
2019-06-26T14:28:02.308Z,4.50
2019-06-26T14:30:35.704Z,5.30
2019-06-26T14:33:09.108Z,5.45
2019-06-26T14:35:42.530Z,5.35
2019-06-26T14:38:15.934Z,4.97
2019-06-26T14:40:49.325Z,5.22
2019-06-26T14:43:22.964Z,5.10
2019-06-26T14:45:56.365Z,5.65
2019-06-26T14:48:30.022Z,4.90
2019-06-26T14:51:03.653Z,4.67
2019-06-26T14:53:37.049Z,5.08
2019-06-26T14:56:10.440Z,4.80
2019-06-26T14:58:43.840Z,5.08
2019-06-26T15:01:17.240Z,5.25
2019-06-26T15:03:50.638Z,5.00
2019-06-26T15:06:24.289Z,4.70
2019-06-26T15:08:57.937Z,4.80
2019-06-26T15:11:31.332Z,5.20
2019-06-26T15:14:04.874Z,5.12
2019-06-26T15:16:38.478Z,4.80
2019-06-26T15:19:11.848Z,4.75
2019-06-26T15:21:57.767Z,5.20
2019-06-26T15:24:20.614Z,5.33
2019-06-26T15:26:54.006Z,5.65
2019-06-26T15:29:27.423Z,5.12
2019-06-26T15:32:00.792Z,5.55
2019-06-26T15:34:34.458Z,4.72
2019-06-26T15:37:07.853Z,5.22
2019-06-26T15:39:41.259Z,5.12
2019-06-26T15:42:14.660Z,4.22
2019-06-26T15:44:49.301Z,5.17
2019-06-26T15:47:22.687Z,4.72
2019-06-26T15:49:56.366Z,4.97
2019-06-26T15:52:31.583Z,5.20
2019-06-26T15:55:06.902Z,4.47
2019-06-26T15:57:40.290Z,4.50
2019-06-26T16:00:15.030Z,4.75
2019-06-26T16:02:48.426Z,4.12
2019-06-26T16:05:21.826Z,4.60
2019-06-26T16:07:55.216Z,4.50
2019-06-26T16:10:28.629Z,4.05
2019-06-26T16:13:02.297Z,5.50
2019-06-26T16:15:36.080Z,4.47
2019-06-26T16:18:13.796Z,5.17
2019-06-26T16:20:47.191Z,5.03
2019-06-26T16:23:20.587Z,4.95
2019-06-26T16:25:53.994Z,5.25
2019-06-26T16:28:27.382Z,5.47
2019-06-26T16:31:00.786Z,4.87
2019-06-26T16:33:34.424Z,4.95
2019-06-26T16:36:07.852Z,5.28
2019-06-26T16:38:41.256Z,4.90
2019-06-26T16:41:15.666Z,5.45
2019-06-26T16:43:49.063Z,5.28
2019-06-26T16:46:22.466Z,5.22
2019-06-26T16:48:55.875Z,4.87
2019-06-26T16:51:29.333Z,4.95
2019-06-26T16:54:02.684Z,4.90
2019-06-26T16:56:36.083Z,4.60
2019-06-26T16:59:09.476Z,5.20
2019-06-26T17:01:42.877Z,4.58
2019-06-26T17:04:16.279Z,5.10
2019-06-26T17:06:51.918Z,5.30
2019-06-26T17:09:25.308Z,5.12
2019-06-26T17:11:58.708Z,5.20
2019-06-26T17:14:32.121Z,5.50
2019-06-26T17:17:05.522Z,5.45
2019-06-26T17:19:40.550Z,5.28
2019-06-26T17:22:13.953Z,5.28
2019-06-26T17:24:49.357Z,5.40
2019-06-26T17:27:22.474Z,5.17
2019-06-26T17:29:57.773Z,5.22
2019-06-26T17:32:32.093Z,5.70
2019-06-26T17:35:09.743Z,5.42
2019-06-26T17:37:43.079Z,4.92
2019-06-26T17:40:16.873Z,5.25
2019-06-26T17:42:50.268Z,5.30
2019-06-26T17:45:23.669Z,5.30
2019-06-26T17:47:57.067Z,5.08
2019-06-26T17:50:30.486Z,5.15
2019-06-26T17:53:03.883Z,6.12
2019-06-26T17:55:37.291Z,5.97
2019-06-26T17:58:10.690Z,5.50
2019-06-26T18:00:44.091Z,6.72
2019-06-26T18:03:17.737Z,5.78
2019-06-26T18:05:51.139Z,5.90
2019-06-26T18:08:24.784Z,5.78
2019-06-26T18:10:58.427Z,6.58
2019-06-26T18:13:32.068Z,5.78
2019-06-26T18:16:05.549Z,6.03
2019-06-26T18:18:38.957Z,5.78
2019-06-26T18:21:12.352Z,6.35
2019-06-26T18:23:45.992Z,6.03
2019-06-26T18:26:19.405Z,6.62
2019-06-26T18:28:52.803Z,6.12
2019-06-26T18:31:26.444Z,6.95
2019-06-26T18:34:00.087Z,7.05
2019-06-26T18:36:34.732Z,7.15
2019-06-26T18:39:09.174Z,6.33
2019-06-26T18:41:42.546Z,6.60
2019-06-26T18:44:15.941Z,7.03
2019-06-26T18:46:49.346Z,7.10
2019-06-26T18:49:22.742Z,7.10
2019-06-26T18:51:56.136Z,7.28
2019-06-26T18:54:29.528Z,6.65
2019-06-26T18:57:02.939Z,6.92
2019-06-26T18:59:36.327Z,7.70
2019-06-26T19:02:09.739Z,7.50
2019-06-26T19:04:43.150Z,7.75
2019-06-26T19:07:16.545Z,7.55
2019-06-26T19:09:49.939Z,7.42
2019-06-26T19:12:24.294Z,7.75
2019-06-26T19:14:57.694Z,7.83
2019-06-26T19:17:31.100Z,7.40
2019-06-26T19:20:06.640Z,7.42
2019-06-26T19:22:40.052Z,7.75
2019-06-26T19:25:13.577Z,7.58
2019-06-26T19:27:46.979Z,7.58
2019-06-26T19:30:20.515Z,7.55
2019-06-26T19:32:53.934Z,8.00
2019-06-26T19:35:27.319Z,7.58
2019-06-26T19:38:00.735Z,8.15
2019-06-26T19:40:34.130Z,7.83
2019-06-26T19:43:10.885Z,8.05
2019-06-26T19:45:42.887Z,8.08
2019-06-26T19:48:16.292Z,7.85
2019-06-26T19:50:49.694Z,8.13
2019-06-26T19:53:23.095Z,8.48
2019-06-26T19:55:56.500Z,7.60
2019-06-26T19:58:30.059Z,8.10
2019-06-26T20:01:03.542Z,9.00
2019-06-26T20:03:36.952Z,8.15
2019-06-26T20:06:10.351Z,9.10
2019-06-26T20:08:53.335Z,8.45
2019-06-26T20:11:18.882Z,8.30
2019-06-26T20:13:52.285Z,8.73
2019-06-26T20:16:25.923Z,8.43
2019-06-26T20:18:59.354Z,7.87
2019-06-26T20:21:32.742Z,8.35
2019-06-26T20:24:06.151Z,8.13
2019-06-26T20:26:39.821Z,7.95
2019-06-26T20:29:13.209Z,8.05
2019-06-26T20:31:46.886Z,8.63
2019-06-26T20:34:20.281Z,8.48
2019-06-26T20:36:53.934Z,8.30
2019-06-26T20:39:27.352Z,7.80
2019-06-26T20:42:00.767Z,8.30
2019-06-26T20:44:34.246Z,7.87
2019-06-26T20:47:07.628Z,8.15
2019-06-26T20:49:52.530Z,7.87
2019-06-26T20:52:16.420Z,8.75
2019-06-26T20:55:00.720Z,8.25
2019-06-26T20:57:24.978Z,8.05
2019-06-26T20:59:58.390Z,8.05
2019-06-26T21:02:31.830Z,8.23
2019-06-26T21:05:07.543Z,8.03
2019-06-26T21:07:40.903Z,8.05
2019-06-26T21:10:14.371Z,8.23
2019-06-26T21:12:48.052Z,7.45
2019-06-26T21:15:21.467Z,7.15
2019-06-26T21:17:55.108Z,7.53
2019-06-26T21:20:28.525Z,7.55
2019-06-26T21:23:02.183Z,7.25
2019-06-26T21:25:35.594Z,7.60
2019-06-26T21:28:09.008Z,7.35
2019-06-26T21:30:42.670Z,7.65
2019-06-26T21:33:16.069Z,7.80
2019-06-26T21:35:49.710Z,8.03
2019-06-26T21:38:23.059Z,7.53
2019-06-26T21:40:56.444Z,7.42
2019-06-26T21:43:29.841Z,8.35
2019-06-26T21:46:03.236Z,7.58
2019-06-26T21:48:36.648Z,7.72
2019-06-26T21:51:10.029Z,8.18
2019-06-26T21:53:43.429Z,8.50
2019-06-26T21:56:17.069Z,7.65
2019-06-26T21:58:50.493Z,8.13
2019-06-26T22:01:24.106Z,7.80
2019-06-26T22:03:57.569Z,7.47
2019-06-26T22:06:31.151Z,7.67
2019-06-26T22:09:05.783Z,8.05
2019-06-26T22:11:39.208Z,8.00
2019-06-26T22:14:12.595Z,8.63
2019-06-26T22:16:45.998Z,7.37
2019-06-26T22:19:19.394Z,7.90
2019-06-26T22:21:52.811Z,8.10
2019-06-26T22:24:26.208Z,8.48
2019-06-26T22:26:59.615Z,8.73
2019-06-26T22:29:32.999Z,7.97
2019-06-26T22:32:06.729Z,8.05
2019-06-26T22:34:40.125Z,8.55
2019-06-26T22:37:13.523Z,8.73
2019-06-26T22:39:46.920Z,8.90
2019-06-26T22:42:20.506Z,7.90
2019-06-26T22:44:54.278Z,7.62
2019-06-26T22:47:27.683Z,7.87
2019-06-26T22:50:01.117Z,8.83
2019-06-26T22:52:34.529Z,8.83
2019-06-26T22:55:08.362Z,8.18
2019-06-26T22:57:41.795Z,8.23
2019-06-26T23:00:16.142Z,8.68
2019-06-26T23:02:49.551Z,8.83
2019-06-26T23:05:23.201Z,8.78
2019-06-26T23:07:56.605Z,8.70
2019-06-26T23:10:29.999Z,8.68
2019-06-26T23:13:03.411Z,8.65
2019-06-26T23:15:36.802Z,9.20
2019-06-26T23:18:10.214Z,8.83
2019-06-26T23:20:43.609Z,8.53
2019-06-26T23:23:17.016Z,9.50
2019-06-26T23:25:50.420Z,8.75
2019-06-26T23:28:23.826Z,8.70
2019-06-26T23:30:57.223Z,9.50
2019-06-26T23:33:30.639Z,9.00
2019-06-26T23:36:04.039Z,9.33
2019-06-26T23:38:37.433Z,9.65
2019-06-26T23:41:10.855Z,9.13
2019-06-26T23:43:44.260Z,9.25
2019-06-26T23:46:17.654Z,9.90
2019-06-26T23:48:51.063Z,9.63
2019-06-26T23:51:24.462Z,10.30
2019-06-26T23:53:58.118Z,8.60
2019-06-26T23:56:40.373Z,9.48
2019-06-26T23:59:06.901Z,9.25
